Reedville, VA (22539)

3:53 AM EDT on October 24, 2014 (GMT -0400)
Wicomico Church | Change Station
CLOSE
Current Station
Personal Weather Station
Location: Heathsville, VA
Elevation: 13 ft
Nearby Weather Stations

Elev 13 ft 37.81 °N, 76.31 °W | Updated 0 second ago

Clear
Clear
53.4 °F
Feels Like 53.4 °F
N
1.5
Wind Variable Wind from South
Gusts 5.4 mph

Today
High -- | Low -- °F
--% Chance of Precip.
Yesterday
High -- | Low -- °F
Precip. -- in
7:22 AM 6:15 PM
New Moon, 0% visible
Pressure 29.89 in
Visibility 10.0 miles
Clouds Clear
Dew Point 46 °F
Humidity 76%
Rainfall 0.00 in
Snow Depth Not available.
UV 0 out of 12
Pollen 2.10 out of 12
Air Quality Not available.
Flu Activity Local Activity
METAR KNUI 240653Z AUTO 29010KT 10SM CLR 14/05 A2989 RMK AO2 SLP122 T01390050

More Conditions Fewer Conditions

Pressure 29.89 in
Visibility 10.0 miles
Clouds Clear
Dew Point 46 °F
Humidity 76%
Rainfall 0.00 in
Snow Depth Not available.
UV 0 out of 12
Pollen 2.10 out of 12
Air Quality Not available.
Flu Activity Local Activity
METAR KNUI 240653Z AUTO 29010KT 10SM CLR 14/05 A2989 RMK AO2 SLP122 T01390050

More Conditions Fewer Conditions

10-Day Weather Forecast

Almanac

Astronomy

Oct. 24, 2014 Rise Set
Actual Time 7:22 AM EDT 6:15 PM EDT
Civil Twilight 6:55 AM EDT 6:42 PM EDT
Nautical Twilight 6:24 AM EDT 7:13 PM EDT
Astronomical Twilight 5:54 AM EDT 7:43 PM EDT
Moon 7:58 AM EDT 6:55 PM EDT
Length of Visible Light 11h 46m
Length of Day
10h 53m
Tomorrow will be 2m 15s shorter.
New Moon, 0% of the Moon is Illuminated
Today
New Moon
Oct 30
First Quarter
Nov 6
Full
Nov 14
Last Quarter
Nov 22
New

Today's Extremes

State Highs State Lows

Community

WunderPhotos

Upload Photos

1,764,512 photos uploaded!

WunderBlogs® & News

Nearby

Snow Depth

Station Depth Elevation
No new snow has been reported.

Earthquake Activity

City Distance Mag. Time & Date
No recent earthquake activity has been reported nearby.
Minimum magnitude displayed is 2.5.

Coastal Water Temperatures

Place Temperature
Wachapreague, VA 59.0 °F
Lewisetta, VA 60.1 °F
Bishops Head, MD 55.9 °F

Nearby Weather Stations